Time;durP1;ratioP1;P1;durP2;ratioP2;P2;SDS_P1;SDS_P2;PMS_P1;PMS_P2;Temp;Humidity;BMP_temperature;BMP_pressure;BME280_temperature;BME280_humidity;BME280_pressure;Samples;Min_cycle;Max_cycle;Signal;HPM_P1;HPM_P2
2023/12/15 00:00:33;;;;;;;6.70;3.15;;;14.50;99.90;;;;;;4968817;28;20027;-37
2023/12/15 00:02:59;;;;;;;8.02;3.58;;;14.20;99.90;;;;;;4969285;28;20030;-37
2023/12/15 00:05:24;;;;;;;8.15;4.07;;;14.40;99.90;;;;;;4968373;28;20049;-34
2023/12/15 00:07:50;;;;;;;7.18;3.85;;;14.30;99.90;;;;;;4968899;28;20039;-37
2023/12/15 00:10:16;;;;;;;7.80;3.80;;;14.40;99.90;;;;;;4966816;28;20498;-35
2023/12/15 00:12:42;;;;;;;7.57;4.45;;;14.20;99.90;;;;;;4969303;28;20418;-36
2023/12/15 00:15:08;;;;;;;7.90;4.53;;;14.50;99.90;;;;;;4969035;28;20045;-37
2023/12/15 00:17:33;;;;;;;10.25;4.90;;;14.10;99.90;;;;;;4969490;28;20502;-37
2023/12/15 00:19:59;;;;;;;8.55;3.67;;;14.50;99.90;;;;;;4969480;28;20035;-35
2023/12/15 00:22:25;;;;;;;9.82;4.32;;;13.70;99.90;;;;;;4966694;28;20058;-35
2023/12/15 00:24:50;;;;;;;6.60;3.72;;;14.70;99.90;;;;;;4968180;28;20093;-37
2023/12/15 00:27:16;;;;;;;7.07;3.72;;;14.20;99.90;;;;;;4969313;28;20505;-35
2023/12/15 00:29:41;;;;;;;7.55;4.07;;;14.00;99.90;;;;;;4969427;28;20097;-35
2023/12/15 00:32:07;;;;;;;7.35;3.47;;;14.40;99.90;;;;;;4969624;28;20041;-34
2023/12/15 00:34:32;;;;;;;9.43;4.65;;;14.10;99.90;;;;;;4968853;28;20127;-36
2023/12/15 00:36:58;;;;;;;9.43;3.38;;;13.70;99.90;;;;;;4969863;28;20042;-35
2023/12/15 00:39:24;;;;;;;7.70;4.03;;;14.50;99.90;;;;;;4969452;28;20406;-34
2023/12/15 00:41:49;;;;;;;9.00;4.10;;;14.70;99.90;;;;;;4967516;28;20069;-37
2023/12/15 00:44:15;;;;;;;9.40;3.92;;;14.10;99.90;;;;;;4969493;28;20082;-38
2023/12/15 00:46:41;;;;;;;8.45;4.53;;;14.00;99.90;;;;;;4966318;28;20045;-35
2023/12/15 00:49:06;;;;;;;7.45;4.47;;;14.30;99.90;;;;;;4982376;28;20117;-34
2023/12/15 00:51:32;;;;;;;9.93;4.50;;;14.30;99.90;;;;;;4968644;28;20050;-38
2023/12/15 00:53:58;;;;;;;6.95;4.32;;;14.30;99.90;;;;;;4969675;28;20402;-37
2023/12/15 00:56:23;;;;;;;12.02;4.10;;;14.40;99.90;;;;;;4966016;28;20065;-35
2023/12/15 00:58:49;;;;;;;8.10;4.20;;;14.10;99.90;;;;;;4966359;28;20039;-35
2023/12/15 01:01:15;;;;;;;8.88;4.47;;;14.30;99.90;;;;;;4969404;28;20502;-35
2023/12/15 01:03:40;;;;;;;8.35;4.35;;;14.00;99.90;;;;;;4968659;28;20043;-39
2023/12/15 01:06:07;;;;;;;9.32;4.80;;;14.00;99.90;;;;;;4966285;28;20042;-37
2023/12/15 01:08:32;;;;;;;10.68;4.85;;;13.90;99.90;;;;;;4967237;28;20070;-37
2023/12/15 01:10:58;;;;;;;12.85;4.53;;;14.50;99.90;;;;;;4936309;28;20039;-34
2023/12/15 01:13:24;;;;;;;9.27;4.40;;;14.30;99.90;;;;;;4971830;28;20055;-36
2023/12/15 01:15:49;;;;;;;9.63;3.67;;;14.20;99.90;;;;;;4968557;28;20054;-35
2023/12/15 01:18:15;;;;;;;8.93;4.07;;;14.00;99.90;;;;;;4972667;28;20050;-39
2023/12/15 01:20:40;;;;;;;7.90;4.22;;;14.10;99.90;;;;;;4969645;28;20039;-34
2023/12/15 01:23:06;;;;;;;8.85;4.40;;;14.20;99.90;;;;;;4971376;28;20078;-37
2023/12/15 01:25:32;;;;;;;8.63;4.22;;;14.00;99.90;;;;;;4972176;28;20036;-35
2023/12/15 01:27:57;;;;;;;7.90;3.80;;;14.30;99.90;;;;;;4969636;28;20098;-37
2023/12/15 01:30:23;;;;;;;8.23;3.97;;;13.90;99.90;;;;;;4971078;28;20070;-35
2023/12/15 01:32:49;;;;;;;8.23;3.70;;;14.30;99.90;;;;;;4972250;28;20530;-34
2023/12/15 01:35:14;;;;;;;10.73;4.30;;;14.10;99.90;;;;;;4971475;28;20034;-34
2023/12/15 01:37:40;;;;;;;8.35;3.67;;;14.20;99.90;;;;;;4971227;28;20097;-37
2023/12/15 01:40:07;;;;;;;7.80;4.05;;;14.10;99.90;;;;;;4970224;28;20518;-34
2023/12/15 01:42:32;;;;;;;6.25;3.17;;;14.10;99.90;;;;;;4971197;28;20105;-36
2023/12/15 01:44:58;;;;;;;7.13;3.33;;;13.90;99.90;;;;;;4967770;28;20047;-35
2023/12/15 01:47:24;;;;;;;7.82;4.03;;;14.50;99.90;;;;;;4966297;28;20034;-36
2023/12/15 01:49:51;;;;;;;8.05;3.42;;;13.90;99.90;;;;;;4967549;28;20483;-34
2023/12/15 01:52:17;;;;;;;6.63;3.13;;;14.10;99.90;;;;;;4971554;28;20437;-35
2023/12/15 01:54:43;;;;;;;8.57;4.05;;;14.30;99.90;;;;;;4969434;28;20051;-35
2023/12/15 01:57:08;;;;;;;7.80;3.25;;;14.10;99.90;;;;;;4971671;28;20285;-35
2023/12/15 01:59:45;;;;;;;8.05;3.58;;;13.60;99.90;;;;;;4972746;28;20122;-38
2023/12/15 02:02:11;;;;;;;8.27;3.60;;;14.50;99.90;;;;;;4971869;28;20035;-35
2023/12/15 02:04:37;;;;;;;7.38;3.25;;;14.30;99.90;;;;;;4968401;28;20406;-35
2023/12/15 02:07:03;;;;;;;7.32;3.45;;;14.40;99.90;;;;;;4971825;28;20125;-34
2023/12/15 02:09:29;;;;;;;6.43;3.08;;;14.70;99.90;;;;;;4968933;28;20038;-34
2023/12/15 02:11:55;;;;;;;5.63;2.90;;;13.50;99.90;;;;;;4969305;28;20061;-35
2023/12/15 02:14:20;;;;;;;6.55;3.00;;;14.10;99.90;;;;;;4971925;28;20043;-35
2023/12/15 02:16:46;;;;;;;7.22;3.10;;;14.20;99.90;;;;;;4970146;28;20069;-37
2023/12/15 02:19:12;;;;;;;6.28;3.10;;;14.00;99.90;;;;;;4969805;28;20082;-34
2023/12/15 02:21:37;;;;;;;5.88;2.83;;;14.00;99.90;;;;;;4968606;28;20459;-35
2023/12/15 02:24:03;;;;;;;6.82;2.97;;;14.10;99.90;;;;;;4970099;28;20495;-36
2023/12/15 02:26:29;;;;;;;6.70;2.80;;;14.20;99.90;;;;;;4969640;28;20122;-35
2023/12/15 02:28:54;;;;;;;6.30;2.67;;;14.20;99.90;;;;;;4968140;28;20479;-35
2023/12/15 02:31:21;;;;;;;6.43;2.83;;;14.10;99.90;;;;;;4970583;28;20046;-35
2023/12/15 02:33:47;;;;;;;6.80;2.40;;;14.10;99.90;;;;;;4970344;28;20478;-39
2023/12/15 02:36:23;;;;;;;5.45;2.35;;;14.30;99.90;;;;;;4970122;28;20081;-37
2023/12/15 02:38:50;;;;;;;6.47;3.00;;;14.00;99.90;;;;;;4968841;28;20121;-35
2023/12/15 02:41:16;;;;;;;7.35;2.83;;;14.10;99.90;;;;;;4970408;28;20038;-38
2023/12/15 02:43:42;;;;;;;7.80;2.65;;;14.00;99.90;;;;;;4969934;28;20222;-38
2023/12/15 02:46:07;;;;;;;5.53;2.50;;;14.20;99.90;;;;;;4966390;28;20054;-35
2023/12/15 02:48:33;;;;;;;5.70;2.42;;;14.00;99.90;;;;;;4953611;28;20488;-34
2023/12/15 02:50:59;;;;;;;6.15;2.58;;;14.50;99.90;;;;;;4984999;28;20073;-36
2023/12/15 02:53:27;;;;;;;7.70;3.13;;;13.60;99.90;;;;;;4970938;28;20046;-35
2023/12/15 02:55:52;;;;;;;6.57;2.55;;;14.30;99.90;;;;;;4969556;28;20042;-39
2023/12/15 02:58:18;;;;;;;6.75;2.33;;;13.90;99.90;;;;;;4968908;28;20039;-35
2023/12/15 03:00:44;;;;;;;7.45;2.42;;;13.80;99.90;;;;;;4970868;28;20521;-41
2023/12/15 03:03:10;;;;;;;6.22;2.13;;;14.00;99.90;;;;;;4970075;28;20121;-35
2023/12/15 03:05:35;;;;;;;5.50;2.30;;;14.20;99.90;;;;;;4967224;28;20034;-34
2023/12/15 03:08:02;;;;;;;4.95;2.13;;;14.50;99.90;;;;;;4959023;28;20518;-35
2023/12/15 03:10:27;;;;;;;5.50;2.35;;;14.10;99.90;;;;;;4967959;28;20031;-38
2023/12/15 03:12:53;;;;;;;5.70;2.53;;;14.20;99.90;;;;;;4965135;28;20046;-35
2023/12/15 03:15:18;;;;;;;6.20;2.45;;;14.20;99.90;;;;;;4948642;28;20046;-37
2023/12/15 03:17:44;;;;;;;5.90;2.63;;;14.20;99.90;;;;;;4967656;28;20034;-35
2023/12/15 03:20:10;;;;;;;5.50;1.80;;;14.30;99.90;;;;;;4966403;28;20057;-37
2023/12/15 03:22:37;;;;;;;6.78;2.65;;;14.30;99.90;;;;;;4969736;28;20047;-34
2023/12/15 03:25:04;;;;;;;6.25;2.38;;;14.20;99.90;;;;;;4967562;28;20089;-35
2023/12/15 03:27:30;;;;;;;5.95;2.33;;;14.50;99.90;;;;;;4967664;28;20062;-35
2023/12/15 03:29:56;;;;;;;7.75;2.55;;;14.20;99.90;;;;;;4969731;28;20069;-36
2023/12/15 03:32:21;;;;;;;10.35;2.17;;;14.20;99.90;;;;;;4970219;28;20529;-34
2023/12/15 03:34:47;;;;;;;6.07;2.28;;;14.20;99.90;;;;;;4958912;28;20031;-41
2023/12/15 03:37:12;;;;;;;5.07;1.95;;;13.90;99.90;;;;;;4970159;28;20194;-38
2023/12/15 03:39:38;;;;;;;5.95;2.03;;;14.60;99.90;;;;;;4970356;28;20384;-35
2023/12/15 03:42:06;;;;;;;5.75;1.90;;;13.80;99.90;;;;;;4969191;28;20057;-38
2023/12/15 03:44:36;;;;;;;8.10;2.35;;;14.40;99.90;;;;;;4969199;28;20038;-35
2023/12/15 03:47:02;;;;;;;6.60;2.55;;;14.10;99.90;;;;;;4965299;28;20069;-35
2023/12/15 03:49:28;;;;;;;9.68;2.40;;;14.00;99.90;;;;;;4968621;28;20034;-35
2023/12/15 03:51:54;;;;;;;6.93;2.90;;;13.80;99.90;;;;;;4969090;28;20038;-35
2023/12/15 03:54:19;;;;;;;6.97;2.17;;;14.10;99.90;;;;;;4967340;28;20117;-35
2023/12/15 03:56:45;;;;;;;6.07;2.10;;;14.20;99.90;;;;;;4970305;28;20225;-36
2023/12/15 03:59:11;;;;;;;6.55;2.95;;;13.80;99.90;;;;;;4969151;28;20074;-34
2023/12/15 04:01:36;;;;;;;6.28;2.22;;;14.30;99.90;;;;;;4969648;28;20470;-36
2023/12/15 04:04:02;;;;;;;5.95;1.80;;;14.20;99.90;;;;;;4968932;28;20035;-35
2023/12/15 04:06:27;;;;;;;5.95;2.10;;;13.90;99.90;;;;;;4969701;28;20410;-35
2023/12/15 04:08:53;;;;;;;6.10;2.20;;;14.10;99.90;;;;;;4969218;28;20035;-35
2023/12/15 04:11:19;;;;;;;8.20;2.40;;;14.40;99.90;;;;;;4970575;28;20039;-34
2023/12/15 04:13:45;;;;;;;6.22;2.33;;;14.10;99.90;;;;;;4969993;28;20039;-34
2023/12/15 04:16:11;;;;;;;5.72;2.17;;;14.30;99.90;;;;;;4968117;28;20046;-38
2023/12/15 04:18:36;;;;;;;6.00;2.70;;;14.30;99.90;;;;;;4969817;28;20064;-35
2023/12/15 04:21:03;;;;;;;5.55;2.08;;;16.10;99.90;;;;;;4967945;28;20047;-36
2023/12/15 04:23:29;;;;;;;7.68;2.53;;;14.30;99.90;;;;;;4970047;28;20046;-39
2023/12/15 04:25:57;;;;;;;5.85;2.40;;;14.50;99.90;;;;;;4968421;28;20434;-36
2023/12/15 04:28:26;;;;;;;5.47;1.98;;;14.20;99.90;;;;;;4965589;28;20035;-38
2023/12/15 04:30:52;;;;;;;7.57;2.10;;;14.20;99.90;;;;;;4967818;28;20046;-37
2023/12/15 04:33:18;;;;;;;6.05;1.98;;;14.60;99.90;;;;;;4965606;28;20110;-36
2023/12/15 04:35:43;;;;;;;9.00;2.65;;;14.50;99.90;;;;;;4962177;28;20035;-35
2023/12/15 04:38:09;;;;;;;7.93;2.50;;;14.40;99.90;;;;;;4968428;28;20097;-34
2023/12/15 04:40:35;;;;;;;7.97;2.75;;;14.50;99.90;;;;;;4967019;28;20115;-37
2023/12/15 04:43:00;;;;;;;6.95;2.05;;;14.10;99.90;;;;;;4967606;28;20494;-37
2023/12/15 04:45:26;;;;;;;9.85;2.10;;;14.80;99.90;;;;;;4967091;28;20042;-37
2023/12/15 04:47:53;;;;;;;5.85;1.90;;;13.80;99.90;;;;;;4966606;28;20038;-38
2023/12/15 04:50:18;;;;;;;6.32;2.25;;;14.20;99.90;;;;;;4972813;28;20046;-39
2023/12/15 04:52:44;;;;;;;9.30;2.45;;;14.40;99.90;;;;;;4973757;28;20042;-34
2023/12/15 04:55:09;;;;;;;6.22;2.15;;;14.30;99.90;;;;;;4967678;28;20053;-35
2023/12/15 04:57:35;;;;;;;6.22;2.20;;;14.00;99.90;;;;;;4972405;28;20129;-36
2023/12/15 05:00:01;;;;;;;9.30;2.83;;;14.50;99.90;;;;;;4970933;28;20035;-35
2023/12/15 05:02:26;;;;;;;8.50;2.83;;;14.30;99.90;;;;;;4971902;28;20490;-35
2023/12/15 05:04:52;;;;;;;13.40;3.00;;;14.80;99.90;;;;;;4973291;28;20041;-37
2023/12/15 05:07:17;;;;;;;31.33;9.35;;;14.30;99.90;;;;;;4969577;28;20527;-35
2023/12/15 05:09:46;;;;;;;30.38;9.85;;;14.00;99.90;;;;;;4972270;28;20031;-35
2023/12/15 05:12:12;;;;;;;28.63;9.50;;;14.80;99.90;;;;;;4971044;28;20046;-35
2023/12/15 05:14:38;;;;;;;26.52;7.90;;;15.40;99.90;;;;;;4967488;28;20037;-37
2023/12/15 05:17:04;;;;;;;19.77;7.03;;;14.80;99.90;;;;;;4968685;28;20035;-40
2023/12/15 05:19:29;;;;;;;26.20;7.05;;;14.70;99.90;;;;;;4972940;28;20038;-35
2023/12/15 05:21:55;;;;;;;20.70;5.90;;;14.20;99.90;;;;;;4970108;28;20545;-36
2023/12/15 05:24:20;;;;;;;20.25;7.00;;;14.30;99.90;;;;;;4969503;28;20077;-38
2023/12/15 05:26:46;;;;;;;16.30;5.25;;;14.30;99.90;;;;;;4962825;28;20075;-34
2023/12/15 05:29:12;;;;;;;16.60;5.03;;;14.50;99.90;;;;;;4961791;28;20462;-35
2023/12/15 05:31:37;;;;;;;16.58;4.95;;;14.90;99.90;;;;;;4965940;28;20039;-37
2023/12/15 05:34:03;;;;;;;16.25;5.07;;;14.50;99.90;;;;;;4954863;28;20042;-38
2023/12/15 05:36:29;;;;;;;22.85;5.65;;;14.40;99.90;;;;;;4967779;28;20166;-39
2023/12/15 05:38:54;;;;;;;17.35;5.38;;;14.50;99.90;;;;;;4965472;28;20054;-36
2023/12/15 05:41:20;;;;;;;21.70;4.80;;;14.60;99.90;;;;;;4967615;28;20118;-35
2023/12/15 05:43:45;;;;;;;13.75;4.35;;;15.30;99.90;;;;;;4969066;28;20326;-39
2023/12/15 05:46:11;;;;;;;17.55;4.80;;;14.90;99.90;;;;;;4969605;28;20130;-36
2023/12/15 05:48:37;;;;;;;13.02;4.03;;;14.60;99.90;;;;;;4971079;28;20312;-39
2023/12/15 05:51:04;;;;;;;15.30;4.82;;;14.70;99.90;;;;;;4970948;28;20081;-36
2023/12/15 05:53:30;;;;;;;13.00;4.28;;;14.50;99.90;;;;;;4970461;28;20143;-38
2023/12/15 05:55:55;;;;;;;14.85;4.03;;;14.50;99.90;;;;;;4969613;28;20126;-35
2023/12/15 05:58:21;;;;;;;13.73;3.67;;;15.00;99.90;;;;;;4970271;28;20482;-37
2023/12/15 06:00:49;;;;;;;13.82;4.68;;;15.10;99.90;;;;;;4970914;28;20070;-37
2023/12/15 06:03:17;;;;;;;18.55;5.60;;;15.00;99.90;;;;;;4969504;28;20082;-38
2023/12/15 06:05:43;;;;;;;16.63;5.82;;;14.40;99.90;;;;;;4971609;28;20402;-36
2023/12/15 06:08:09;;;;;;;54.60;17.98;;;14.30;99.90;;;;;;4970313;28;20082;-39
2023/12/15 06:10:35;;;;;;;56.20;16.30;;;;;;;;;;4970218;28;20070;-35
2023/12/15 06:13:01;;;;;;;39.35;12.30;;;15.30;99.90;;;;;;4971651;28;20046;-35
2023/12/15 06:15:26;;;;;;;35.75;13.25;;;14.90;99.90;;;;;;4969597;28;20043;-37
2023/12/15 06:17:52;;;;;;;36.10;9.48;;;14.80;99.90;;;;;;4971973;28;20050;-38
2023/12/15 06:20:18;;;;;;;28.60;9.70;;;14.90;99.90;;;;;;4964598;28;20046;-35
2023/12/15 06:22:43;;;;;;;33.95;10.63;;;14.60;99.90;;;;;;4967617;28;20486;-35
2023/12/15 06:25:09;;;;;;;24.15;8.80;;;14.80;99.90;;;;;;4963326;28;20285;-35
2023/12/15 06:27:35;;;;;;;28.75;8.07;;;15.40;99.90;;;;;;4968260;28;20498;-36
2023/12/15 06:30:00;;;;;;;29.95;8.90;;;14.50;99.90;;;;;;4970563;28;20035;-35
2023/12/15 06:32:26;;;;;;;25.75;7.30;;;14.50;99.90;;;;;;4964277;28;20042;-39
2023/12/15 06:34:52;;;;;;;23.90;7.53;;;14.40;99.90;;;;;;4970692;28;20450;-40
2023/12/15 06:37:17;;;;;;;22.67;7.50;;;15.20;99.90;;;;;;4966586;28;20034;-36
2023/12/15 06:39:47;;;;;;;21.23;7.95;;;14.80;99.90;;;;;;4971189;28;20483;-38
2023/12/15 06:42:13;;;;;;;21.52;7.10;;;14.60;99.90;;;;;;4950842;28;20066;-38
2023/12/15 06:44:39;;;;;;;21.55;6.93;;;15.20;99.90;;;;;;4970984;28;20035;-35
2023/12/15 06:47:05;;;;;;;20.85;6.50;;;15.70;99.90;;;;;;4967206;28;20414;-39
2023/12/15 06:49:31;;;;;;;16.75;5.57;;;14.50;99.90;;;;;;4971030;28;20140;-38
2023/12/15 06:52:00;;;;;;;15.88;5.65;;;14.70;99.90;;;;;;4971168;28;20276;-35
2023/12/15 06:54:26;;;;;;;15.32;5.85;;;14.80;99.90;;;;;;4963651;28;20769;-41
2023/12/15 06:56:54;;;;;;;16.40;6.20;;;14.80;99.90;;;;;;4968285;28;20069;-39
2023/12/15 06:59:19;;;;;;;20.73;6.40;;;14.70;99.90;;;;;;4970794;28;20043;-37
2023/12/15 07:01:45;;;;;;;19.15;5.90;;;15.20;99.90;;;;;;4970464;28;20090;-35
2023/12/15 07:04:11;;;;;;;18.17;6.05;;;15.30;99.90;;;;;;4965835;28;20482;-35
2023/12/15 07:06:37;;;;;;;16.15;5.28;;;15.00;99.90;;;;;;4962056;28;20069;-38
2023/12/15 07:09:02;;;;;;;12.85;4.53;;;14.70;99.90;;;;;;4964395;28;20089;-38
2023/12/15 07:11:28;;;;;;;16.98;5.80;;;14.60;99.90;;;;;;4965155;28;20046;-38
2023/12/15 07:13:54;;;;;;;17.73;6.07;;;15.30;99.90;;;;;;4967462;28;20062;-35
2023/12/15 07:16:19;;;;;;;15.60;5.05;;;14.90;99.90;;;;;;4967052;28;20042;-36
2023/12/15 07:18:45;;;;;;;15.48;4.75;;;14.90;99.90;;;;;;4965516;28;20064;-37
2023/12/15 07:21:11;;;;;;;15.02;4.72;;;14.20;99.90;;;;;;4964529;28;20071;-35
2023/12/15 07:23:37;;;;;;;15.13;4.80;;;14.80;99.90;;;;;;4967944;28;20089;-39
2023/12/15 07:26:04;;;;;;;12.60;4.80;;;14.60;99.90;;;;;;4962731;28;20031;-38
2023/12/15 07:28:30;;;;;;;17.50;4.70;;;14.20;99.90;;;;;;4969933;28;20066;-37
2023/12/15 07:30:55;;;;;;;16.30;4.50;;;14.80;99.90;;;;;;4965351;28;20058;-38
2023/12/15 07:33:21;;;;;;;12.82;4.43;;;14.60;99.90;;;;;;4962645;28;20038;-36
2023/12/15 07:35:46;;;;;;;15.13;5.13;;;14.20;99.90;;;;;;4963860;28;20097;-35
2023/12/15 07:38:12;;;;;;;14.65;5.18;;;14.40;99.90;;;;;;4962727;28;20108;-36
2023/12/15 07:40:38;;;;;;;12.23;4.47;;;14.00;99.90;;;;;;4966374;28;20109;-37
2023/12/15 07:43:03;;;;;;;15.85;4.85;;;14.50;99.90;;;;;;4968088;28;20443;-37
2023/12/15 07:45:29;;;;;;;11.13;3.72;;;15.20;99.90;;;;;;4963007;28;20518;-35
2023/12/15 07:47:56;;;;;;;13.35;4.03;;;14.30;99.90;;;;;;4968753;28;20046;-39
2023/12/15 07:50:22;;;;;;;12.00;4.30;;;14.40;99.90;;;;;;4966708;28;20569;-35
2023/12/15 07:52:47;;;;;;;12.20;4.28;;;14.70;99.90;;;;;;4970008;28;20050;-35
2023/12/15 07:55:13;;;;;;;13.40;3.88;;;14.30;99.90;;;;;;4964775;28;20097;-35
2023/12/15 07:57:39;;;;;;;12.88;3.97;;;13.90;99.90;;;;;;4966975;28;20104;-38
2023/12/15 08:00:09;;;;;;;14.13;4.18;;;14.90;99.90;;;;;;4984554;28;20614;-37
2023/12/15 08:02:35;;;;;;;13.30;4.93;;;14.40;99.90;;;;;;4969565;28;20043;-38
2023/12/15 08:05:01;;;;;;;11.52;4.05;;;14.50;99.90;;;;;;4969178;28;20526;-36
2023/12/15 08:07:26;;;;;;;12.50;4.20;;;14.20;99.90;;;;;;4967333;28;20562;-36
2023/12/15 08:09:52;;;;;;;14.07;4.10;;;14.20;99.90;;;;;;4970158;28;20112;-35
2023/12/15 08:12:17;;;;;;;12.43;3.38;;;15.10;99.90;;;;;;4968068;28;20138;-38
2023/12/15 08:14:44;;;;;;;10.43;3.85;;;14.10;99.90;;;;;;4969171;28;20035;-37
2023/12/15 08:17:09;;;;;;;16.00;3.80;;;14.60;99.90;;;;;;4969928;28;20414;-38
2023/12/15 08:19:36;;;;;;;12.77;3.72;;;14.90;99.90;;;;;;4969363;28;20117;-35
2023/12/15 08:22:01;;;;;;;12.00;3.90;;;14.00;99.90;;;;;;4969800;28;20043;-36
2023/12/15 08:24:28;;;;;;;10.90;3.53;;;14.50;99.90;;;;;;4971603;28;20093;-35
2023/12/15 08:26:54;;;;;;;15.80;4.53;;;15.00;99.90;;;;;;4972621;28;20423;-35
2023/12/15 08:29:20;;;;;;;15.38;4.18;;;13.70;99.90;;;;;;4971891;28;20073;-36
2023/12/15 08:31:46;;;;;;;10.70;3.67;;;14.40;99.90;;;;;;4975262;28;20039;-36
2023/12/15 08:34:12;;;;;;;12.90;3.92;;;14.40;99.90;;;;;;4972322;28;20585;-35
2023/12/15 08:36:37;;;;;;;10.68;3.40;;;14.50;99.90;;;;;;4971147;28;20126;-38
2023/12/15 08:39:04;;;;;;;12.10;3.72;;;14.10;99.90;;;;;;4970217;28;20042;-38
2023/12/15 08:41:30;;;;;;;12.75;4.55;;;14.30;99.90;;;;;;4972604;28;20063;-35
2023/12/15 08:43:56;;;;;;;12.10;3.42;;;14.10;99.90;;;;;;4972344;28;20582;-36
2023/12/15 08:46:22;;;;;;;11.68;4.03;;;14.30;99.90;;;;;;4969019;28;20041;-38
2023/12/15 08:48:49;;;;;;;13.68;4.38;;;14.10;99.90;;;;;;4973335;28;20146;-40
2023/12/15 08:51:16;;;;;;;11.55;4.00;;;14.20;99.90;;;;;;4989853;28;20058;-35
2023/12/15 08:53:43;;;;;;;12.77;3.90;;;13.80;99.90;;;;;;4969677;28;20505;-36
2023/12/15 08:56:09;;;;;;;9.73;3.00;;;14.30;99.90;;;;;;4973144;28;20485;-36
2023/12/15 08:58:35;;;;;;;9.82;3.65;;;14.50;99.90;;;;;;4972607;28;20097;-35
2023/12/15 09:01:01;;;;;;;10.85;3.90;;;14.20;99.90;;;;;;4972245;28;20034;-36
2023/12/15 09:03:27;;;;;;;14.25;3.90;;;14.00;99.90;;;;;;4970185;28;20054;-37
2023/12/15 09:05:53;;;;;;;13.63;4.05;;;13.60;99.90;;;;;;4972566;28;20374;-37
2023/12/15 09:08:19;;;;;;;10.25;3.50;;;14.20;99.90;;;;;;4973521;28;20031;-38
2023/12/15 09:10:50;;;;;;;9.43;2.97;;;13.60;99.90;;;;;;4974960;28;20092;-37
2023/12/15 09:13:20;;;;;;;10.95;3.25;;;14.10;99.90;;;;;;4972240;28;20146;-34
2023/12/15 09:15:46;;;;;;;11.80;3.35;;;13.90;99.90;;;;;;4968059;28;20085;-36
2023/12/15 09:18:14;;;;;;;13.43;3.78;;;13.60;99.90;;;;;;4972588;28;20122;-37
2023/12/15 09:20:39;;;;;;;10.07;3.72;;;14.30;99.90;;;;;;4971897;28;20498;-38
2023/12/15 09:23:12;;;;;;;14.23;3.70;;;14.40;99.90;;;;;;4967667;28;20117;-35
2023/12/15 09:25:38;;;;;;;13.10;4.00;;;14.10;99.90;;;;;;4972400;28;20508;-36
2023/12/15 09:28:05;;;;;;;11.30;3.70;;;14.10;99.90;;;;;;4971728;28;20035;-34
2023/12/15 09:30:31;;;;;;;10.70;3.60;;;13.60;99.90;;;;;;4970648;28;20035;-34
2023/12/15 09:32:57;;;;;;;11.73;4.32;;;14.30;99.90;;;;;;4974042;28;20395;-35
2023/12/15 09:35:24;;;;;;;14.55;3.42;;;14.00;99.90;;;;;;4971852;28;20049;-35
2023/12/15 09:37:50;;;;;;;10.48;4.35;;;14.10;99.90;;;;;;4973316;28;20038;-34
2023/12/15 09:40:25;;;;;;;14.52;5.40;;;14.20;99.90;;;;;;4971852;28;20034;-35
2023/12/15 09:42:53;;;;;;;11.63;3.28;;;13.70;99.90;;;;;;4974305;28;20039;-35
2023/12/15 09:45:24;;;;;;;13.52;3.80;;;13.90;99.90;;;;;;4969732;28;20217;-40
2023/12/15 09:47:51;;;;;;;10.70;3.92;;;14.30;99.90;;;;;;4972420;28;20406;-35
2023/12/15 09:50:23;;;;;;;14.00;4.30;;;14.10;99.90;;;;;;4972402;28;20035;-34
2023/12/15 09:52:55;;;;;;;12.02;3.50;;;13.90;99.90;;;;;;4972520;28;20050;-42
2023/12/15 09:55:21;;;;;;;13.52;4.00;;;13.90;99.90;;;;;;4969370;28;20053;-35
2023/12/15 09:57:47;;;;;;;12.65;3.75;;;14.40;99.90;;;;;;4972109;28;20039;-37
2023/12/15 10:00:13;;;;;;;13.23;3.97;;;14.00;99.90;;;;;;4970847;28;20043;-35
2023/12/15 10:02:39;;;;;;;12.10;4.15;;;13.80;99.90;;;;;;4973285;28;20050;-39
2023/12/15 10:05:06;;;;;;;16.27;5.13;;;14.20;99.90;;;;;;4971820;28;20031;-39
2023/12/15 10:07:32;;;;;;;13.70;3.63;;;13.90;99.90;;;;;;4969534;28;20035;-35
2023/12/15 10:10:00;;;;;;;16.27;4.07;;;14.20;99.90;;;;;;4972337;28;20487;-36
2023/12/15 10:12:30;;;;;;;11.43;3.78;;;13.60;99.90;;;;;;4970658;28;20050;-41
2023/12/15 10:15:03;;;;;;;16.58;3.92;;;13.90;99.90;;;;;;4969821;28;20042;-39
2023/12/15 10:17:29;;;;;;;10.68;3.88;;;14.00;99.90;;;;;;4983805;28;20049;-35
2023/12/15 10:20:06;;;;;;;13.48;3.95;;;13.90;99.90;;;;;;4972193;28;20043;-39
2023/12/15 10:22:33;;;;;;;14.30;5.35;;;14.20;99.90;;;;;;4971654;28;20062;-35
2023/12/15 10:24:59;;;;;;;14.52;4.03;;;14.00;99.90;;;;;;4971393;28;20071;-36
2023/12/15 10:27:25;;;;;;;14.88;4.55;;;13.50;99.90;;;;;;4982931;28;20660;-34
2023/12/15 10:29:51;;;;;;;15.45;4.05;;;14.00;99.90;;;;;;4971486;28;20034;-35
2023/12/15 10:32:18;;;;;;;15.90;4.20;;;13.80;99.90;;;;;;4974379;28;20047;-36
2023/12/15 10:34:46;;;;;;;12.80;4.13;;;13.80;99.90;;;;;;4970638;28;20038;-38
2023/12/15 10:37:12;;;;;;;10.93;4.30;;;13.90;99.90;;;;;;4968819;28;20054;-37
2023/12/15 10:39:38;;;;;;;11.32;4.25;;;13.90;99.90;;;;;;4970813;28;20058;-36
2023/12/15 10:42:05;;;;;;;13.93;4.13;;;14.00;99.90;;;;;;4971469;28;20193;-37
2023/12/15 10:44:33;;;;;;;13.13;4.32;;;13.80;99.90;;;;;;4970569;28;20039;-35
2023/12/15 10:47:04;;;;;;;13.85;4.18;;;14.00;99.90;;;;;;4971264;28;20034;-35
2023/12/15 10:49:31;;;;;;;18.23;4.93;;;13.70;99.90;;;;;;4967739;28;20046;-37
2023/12/15 10:51:57;;;;;;;15.98;4.47;;;13.70;99.90;;;;;;4972692;28;20038;-35
2023/12/15 10:54:24;;;;;;;18.67;4.78;;;13.70;99.90;;;;;;4971061;28;20050;-38
2023/12/15 10:56:51;;;;;;;13.93;4.15;;;13.20;99.90;;;;;;4968181;28;20109;-35
2023/12/15 10:59:17;;;;;;;15.80;4.38;;;14.50;99.90;;;;;;4971521;28;20050;-36
2023/12/15 11:01:44;;;;;;;14.93;4.65;;;14.00;99.90;;;;;;4970862;28;20050;-35
2023/12/15 11:04:22;;;;;;;15.20;4.25;;;13.70;99.90;;;;;;4969653;28;20639;-34
2023/12/15 11:06:49;;;;;;;13.25;4.15;;;13.80;99.90;;;;;;4982377;28;20047;-37
2023/12/15 11:09:30;;;;;;;14.15;4.75;;;14.20;99.90;;;;;;4969562;28;20035;-35
2023/12/15 11:12:17;;;;;;;17.25;4.63;;;13.80;99.90;;;;;;4971619;28;20069;-37
2023/12/15 11:14:56;;;;;;;14.65;4.47;;;13.40;99.90;;;;;;4969542;28;20051;-35
2023/12/15 11:17:22;;;;;;;15.30;4.30;;;13.70;99.90;;;;;;4969427;28;20130;-37
2023/12/15 11:19:56;;;;;;;14.73;4.47;;;13.10;99.90;;;;;;4969566;28;20477;-35
2023/12/15 11:22:21;;;;;;;12.80;4.50;;;13.50;99.90;;;;;;4971285;28;20056;-35
2023/12/15 11:24:47;;;;;;;13.70;4.53;;;13.40;99.90;;;;;;4969762;28;20110;-38
2023/12/15 11:27:15;;;;;;;11.70;3.95;;;13.60;99.90;;;;;;4965052;28;20080;-37
2023/12/15 11:29:40;;;;;;;14.85;4.55;;;13.90;99.90;;;;;;4951016;28;20439;-34
2023/12/15 11:32:28;;;;;;;10.85;3.97;;;14.00;99.90;;;;;;4972009;28;20041;-34
2023/12/15 11:34:57;;;;;;;12.98;4.55;;;13.40;99.90;;;;;;4969527;28;20141;-38
2023/12/15 11:37:24;;;;;;;15.05;4.63;;;14.00;99.90;;;;;;4967855;28;20047;-37
2023/12/15 11:39:51;;;;;;;12.95;4.35;;;13.90;99.90;;;;;;4968249;28;20097;-37
2023/12/15 11:42:17;;;;;;;12.52;3.60;;;13.20;99.90;;;;;;4972202;28;20044;-35
2023/12/15 11:44:44;;;;;;;12.38;4.22;;;13.30;99.90;;;;;;4969546;28;20070;-35
2023/12/15 11:47:11;;;;;;;13.35;4.65;;;13.90;99.90;;;;;;4970008;28;20042;-37
2023/12/15 11:49:42;;;;;;;13.38;4.05;;;14.00;99.90;;;;;;4969926;28;20039;-36
2023/12/15 11:52:10;;;;;;;13.25;4.18;;;13.60;99.90;;;;;;4969501;28;20043;-38
2023/12/15 11:54:36;;;;;;;16.08;4.72;;;13.80;99.90;;;;;;4977919;28;20050;-40
2023/12/15 11:57:05;;;;;;;14.57;4.72;;;13.80;99.90;;;;;;4968032;28;20089;-37
2023/12/15 11:59:35;;;;;;;9.80;4.10;;;13.30;99.90;;;;;;4967093;28;20043;-36
2023/12/15 12:02:01;;;;;;;15.27;3.90;;;13.40;99.90;;;;;;4968949;28;20426;-35
2023/12/15 12:04:29;;;;;;;14.38;4.40;;;13.60;99.90;;;;;;4970252;28;20106;-35
2023/12/15 12:06:55;;;;;;;19.42;4.38;;;14.00;99.90;;;;;;4967980;28;20047;-37
2023/12/15 12:09:22;;;;;;;11.50;4.38;;;13.80;99.90;;;;;;4967349;28;20122;-37
2023/12/15 12:11:48;;;;;;;9.63;3.55;;;13.70;99.90;;;;;;4970046;28;20113;-35
2023/12/15 12:14:14;;;;;;;11.07;3.38;;;13.70;99.90;;;;;;4967920;28;20576;-38
2023/12/15 12:16:40;;;;;;;13.45;3.75;;;13.50;99.90;;;;;;4984026;28;20470;-35
2023/12/15 12:19:06;;;;;;;16.25;4.30;;;14.10;99.90;;;;;;4969906;28;20034;-36
2023/12/15 12:21:32;;;;;;;11.45;4.18;;;13.60;99.90;;;;;;4969423;28;20046;-35
2023/12/15 12:23:59;;;;;;;9.63;3.60;;;13.80;99.90;;;;;;4969339;28;20039;-36
2023/12/15 12:26:26;;;;;;;11.60;3.72;;;13.70;99.90;;;;;;4965425;28;20042;-36
2023/12/15 12:28:53;;;;;;;15.30;3.90;;;14.10;99.90;;;;;;4967317;28;20307;-38
2023/12/15 12:31:18;;;;;;;13.63;3.85;;;14.10;99.90;;;;;;4968885;28;20142;-36
2023/12/15 12:33:44;;;;;;;10.90;2.92;;;14.50;99.90;;;;;;4967862;28;20053;-34
2023/12/15 12:36:10;;;;;;;10.10;3.35;;;13.80;99.90;;;;;;4968085;28;20043;-38